Air Resources Laboratory banner image
Air Resources Laboratory web site National Oceanic and Atmospheric Administration (NOAA)

hi metar


PHBK 220956Z AUTO 07003KT 10SM CLR 22/17 A3000 RMK AO2 SLP162 T02220172
 403060222=
PHHI 220956Z AUTO 30005KT 10SM FEW050 FEW060 22/18 A3002 RMK AO2 SLP154
 T02180182 402890208 $=
PHJR 220953Z AUTO 05006KT 10SM FEW060 24/19 A3002 RMK AO2 SLP170 T02440189
 403220217 TSNO=
PHKO 220953Z AUTO 00000KT 10SM OVC047 27/20 A2995 RMK AO2 SLP143 T02670200
 403000250 TSNO=
PHLI 220953Z 05011KT 10SM FEW025 26/21 A3005 RMK AO2 SLP172 T02560206 403000250
 $=
PHMK 220954Z AUTO 02010G16KT 10SM BKN075 25/21 A3001 RMK AO2 SLP163 T02500211
 403060244 TSNO=
PHNG 220957Z 08006KT 10SM SCT029 BKN040 OVC060 26/21 A3000 RMK AO2 SLP152
 T02610206 402940256 $=
PHNL 220953Z 07010KT 10SM FEW026 SCT046 BKN070 26/19 A3001 RMK AO2 SLP161
 T02560189 403110250=
PHNY 220956Z AUTO 09008KT 10SM FEW016 BKN023 22/19 A3006 RMK AO2 SLP157
 T02170194 402670206=
PHOG 220954Z AUTO 04014KT 10SM FEW050 OVC070 24/23 A3000 RMK AO2 SLP162
 T02440228 402940228 TSNO $=
PHSF 220956Z AUTO 00000KT 10SM CLR 10/07 A3032 RMK AO2 SLP150 WND DATA ESTMD
 T00980074 402370078 $=
PHTO 220953Z AUTO 25004KT 10SM FEW019 FEW028 SCT043 23/22 A3001 RMK AO2 SLP160
 T02330217 402830222 TSNO=
PMDY 220956Z AUTO 08016KT 10SM SCT020 24/21 A3016 RMK AO2 SLP211 T02390211=